Time;durP1;ratioP1;P1;durP2;ratioP2;P2;SDS_P1;SDS_P2;PMS_P1;PMS_P2;Temp;Humidity;BMP_temperature;BMP_pressure;BME280_temperature;BME280_humidity;BME280_pressure;Samples;Min_cycle;Max_cycle;Signal;HPM_P1;HPM_P2
2022/04/13 00:01:48;;;;;;;;;4.00;4.00;;;;;;;;5123570;27;51261;-51
2022/04/13 00:04:15;;;;;;;;;2.33;2.33;;;;;;;;5129328;27;51051;-55
2022/04/13 00:06:41;;;;;;;;;3.00;3.00;;;;;;;;5119636;27;52897;-53
2022/04/13 00:09:06;;;;;;;;;3.00;3.00;;;;;;;;5124324;27;50975;-53
2022/04/13 00:11:32;;;;;;;;;2.00;2.00;;;;;;;;5121065;27;54731;-53
2022/04/13 00:13:57;;;;;;;;;3.00;3.00;;;;;;;;5130962;27;51267;-54
2022/04/13 00:16:22;;;;;;;;;3.33;3.00;;;;;;;;5100233;27;51972;-51
2022/04/13 00:18:47;;;;;;;;;2.67;2.67;;;;;;;;5128722;27;51259;-51
2022/04/13 00:21:12;;;;;;;;;2.00;2.00;;;;;;;;5121160;27;51178;-52
2022/04/13 00:23:38;;;;;;;;;3.00;3.00;;;;;;;;5125985;27;50875;-53
2022/04/13 00:26:03;;;;;;;;;3.00;2.00;;;;;;;;5122714;27;51249;-50
2022/04/13 00:28:28;;;;;;;;;3.33;2.67;;;;;;;;5128386;27;51062;-51
2022/04/13 00:30:53;;;;;;;;;3.33;3.00;;;;;;;;5126302;27;50967;-53
2022/04/13 00:33:19;;;;;;;;;2.00;2.00;;;;;;;;5117022;27;51397;-49
2022/04/13 00:35:44;;;;;;;;;2.00;2.00;;;;;;;;5120962;27;51940;-53
2022/04/13 00:38:09;;;;;;;;;3.00;3.00;;;;;;;;5097666;27;51071;-52
2022/04/13 00:40:36;;;;;;;;;3.00;3.00;;;;;;;;5122356;27;51273;-52
2022/04/13 00:43:01;;;;;;;;;1.33;1.33;;;;;;;;5123888;27;51275;-51
2022/04/13 00:45:26;;;;;;;;;1.00;1.00;;;;;;;;5124355;27;51155;-53
2022/04/13 00:47:52;;;;;;;;;1.67;1.67;;;;;;;;5122741;27;50874;-52
2022/04/13 00:50:19;;;;;;;;;4.00;3.00;;;;;;;;5123096;27;51083;-51
2022/04/13 00:52:46;;;;;;;;;4.00;3.00;;;;;;;;5127735;27;50956;-52
2022/04/13 00:55:13;;;;;;;;;2.33;2.00;;;;;;;;5121229;27;52272;-53
2022/04/13 00:57:40;;;;;;;;;3.00;3.00;;;;;;;;5114983;27;51036;-54
2022/04/13 01:00:06;;;;;;;;;3.00;2.67;;;;;;;;5110326;27;51114;-53
2022/04/13 01:02:31;;;;;;;;;3.00;2.00;;;;;;;;5107186;27;51000;-54
2022/04/13 01:05:01;;;;;;;;;3.00;3.00;;;;;;;;5097518;27;52079;-52
2022/04/13 01:07:26;;;;;;;;;4.00;4.00;;;;;;;;5111326;27;51197;-51
2022/04/13 01:09:52;;;;;;;;;2.00;2.00;;;;;;;;5112228;27;51110;-50
2022/04/13 01:12:17;;;;;;;;;2.33;2.33;;;;;;;;5111994;27;50997;-54
2022/04/13 01:14:42;;;;;;;;;3.00;3.00;;;;;;;;5111444;27;52357;-49
2022/04/13 01:17:07;;;;;;;;;3.00;2.00;;;;;;;;5107360;27;51276;-51
2022/04/13 01:19:33;;;;;;;;;3.00;2.33;;;;;;;;5111274;27;51812;-55
2022/04/13 01:21:59;;;;;;;;;2.00;1.67;;;;;;;;5110647;27;51561;-52
2022/04/13 01:24:24;;;;;;;;;1.00;1.00;;;;;;;;5110242;27;52830;-52
2022/04/13 01:26:50;;;;;;;;;1.67;1.33;;;;;;;;5107451;27;51221;-47
2022/04/13 01:29:15;;;;;;;;;2.00;2.00;;;;;;;;5114040;27;51256;-47
2022/04/13 01:31:41;;;;;;;;;3.33;3.00;;;;;;;;5109385;27;51125;-49
2022/04/13 01:34:06;;;;;;;;;2.00;2.00;;;;;;;;5102479;27;51766;-51
2022/04/13 01:36:32;;;;;;;;;2.33;2.33;;;;;;;;5108001;27;50821;-53
2022/04/13 01:38:57;;;;;;;;;2.67;2.67;;;;;;;;5112370;27;51156;-53
2022/04/13 01:41:23;;;;;;;;;2.00;2.00;;;;;;;;5094800;27;51148;-52
2022/04/13 01:43:48;;;;;;;;;2.00;2.00;;;;;;;;5100801;27;52572;-54
2022/04/13 01:46:13;;;;;;;;;3.00;2.00;;;;;;;;5102592;27;51224;-52
2022/04/13 01:48:38;;;;;;;;;5.33;5.00;;;;;;;;5110455;27;51495;-53
2022/04/13 01:51:04;;;;;;;;;4.00;4.00;;;;;;;;5100210;27;51718;-51
2022/04/13 01:53:29;;;;;;;;;4.00;3.00;;;;;;;;5111059;27;51994;-52
2022/04/13 01:55:54;;;;;;;;;2.00;2.00;;;;;;;;5108632;27;50935;-50
2022/04/13 01:58:20;;;;;;;;;2.00;2.00;;;;;;;;5111544;27;50955;-53
2022/04/13 02:00:45;;;;;;;;;2.67;2.67;;;;;;;;5104690;27;51352;-53
2022/04/13 02:03:10;;;;;;;;;3.67;3.33;;;;;;;;5107625;27;52902;-52
2022/04/13 02:05:35;;;;;;;;;4.00;3.00;;;;;;;;5108433;27;54870;-52
2022/04/13 02:08:01;;;;;;;;;3.00;3.00;;;;;;;;5110155;27;50917;-53
2022/04/13 02:10:27;;;;;;;;;3.67;3.00;;;;;;;;5105337;27;51476;-51
2022/04/13 02:12:52;;;;;;;;;4.00;4.00;;;;;;;;5105708;27;50862;-53
2022/04/13 02:15:17;;;;;;;;;3.33;3.00;;;;;;;;5106703;27;51079;-53
2022/04/13 02:17:43;;;;;;;;;2.67;2.67;;;;;;;;5108764;27;50906;-52
2022/04/13 02:20:08;;;;;;;;;3.33;2.00;;;;;;;;5092194;27;51262;-53
2022/04/13 02:22:34;;;;;;;;;3.00;2.33;;;;;;;;5094098;27;51138;-51
2022/04/13 02:25:00;;;;;;;;;3.33;3.33;;;;;;;;5104368;27;51302;-50
2022/04/13 02:27:26;;;;;;;;;3.00;3.00;;;;;;;;5111797;27;51601;-52
2022/04/13 02:29:51;;;;;;;;;2.67;2.00;;;;;;;;5108449;27;51100;-49
2022/04/13 02:32:17;;;;;;;;;4.00;3.00;;;;;;;;5090994;27;53979;-52
2022/04/13 02:34:44;;;;;;;;;3.00;3.00;;;;;;;;5099547;27;51157;-52
2022/04/13 02:37:10;;;;;;;;;3.00;3.00;;;;;;;;5112445;27;51257;-50
2022/04/13 02:39:35;;;;;;;;;3.00;3.00;;;;;;;;5106101;27;51415;-50
2022/04/13 02:42:00;;;;;;;;;2.00;2.00;;;;;;;;5107598;27;51077;-48
2022/04/13 02:44:25;;;;;;;;;3.00;3.00;;;;;;;;5106170;27;51348;-48
2022/04/13 02:46:50;;;;;;;;;4.67;4.33;;;;;;;;5105700;27;51275;-48
2022/04/13 02:49:16;;;;;;;;;5.00;4.00;;;;;;;;5105585;27;51089;-50
2022/04/13 02:51:41;;;;;;;;;4.67;3.00;;;;;;;;5097538;27;51357;-48
2022/04/13 02:54:06;;;;;;;;;4.00;3.00;;;;;;;;5111334;27;51170;-51
2022/04/13 02:56:31;;;;;;;;;3.00;3.00;;;;;;;;5105537;27;51387;-54
2022/04/13 02:58:56;;;;;;;;;4.00;4.00;;;;;;;;5095911;27;51135;-50
2022/04/13 03:01:22;;;;;;;;;4.00;3.67;;;;;;;;5105428;27;51873;-51
2022/04/13 03:03:47;;;;;;;;;4.00;4.00;;;;;;;;5108543;27;51157;-52
2022/04/13 03:06:12;;;;;;;;;3.67;3.67;;;;;;;;5103692;27;53802;-52
2022/04/13 03:08:38;;;;;;;;;3.33;3.33;;;;;;;;5109608;27;51187;-51
2022/04/13 03:11:03;;;;;;;;;4.00;4.00;;;;;;;;5106674;27;51985;-53
2022/04/13 03:13:28;;;;;;;;;4.00;4.00;;;;;;;;5110386;27;51068;-54
2022/04/13 03:15:54;;;;;;;;;3.67;3.67;;;;;;;;5100983;27;52532;-55
2022/04/13 03:18:19;;;;;;;;;3.67;3.67;;;;;;;;5100088;27;51113;-53
2022/04/13 03:20:44;;;;;;;;;4.67;4.67;;;;;;;;5105218;27;51159;-53
2022/04/13 03:23:09;;;;;;;;;4.00;4.00;;;;;;;;5113411;27;50918;-54
2022/04/13 03:25:34;;;;;;;;;5.00;4.67;;;;;;;;5103057;27;51364;-53
2022/04/13 03:28:00;;;;;;;;;4.67;4.00;;;;;;;;5104112;27;51174;-49
2022/04/13 03:30:25;;;;;;;;;4.00;4.00;;;;;;;;5109870;27;51792;-50
2022/04/13 03:32:51;;;;;;;;;5.00;4.33;;;;;;;;5096454;27;51060;-51
2022/04/13 03:35:16;;;;;;;;;4.00;4.00;;;;;;;;5109174;27;51220;-53
2022/04/13 03:37:42;;;;;;;;;4.00;4.00;;;;;;;;5094182;27;51020;-52
2022/04/13 03:40:08;;;;;;;;;5.00;4.00;;;;;;;;5094331;27;51505;-53
2022/04/13 03:42:34;;;;;;;;;6.33;6.00;;;;;;;;5084035;27;51184;-54
2022/04/13 03:45:03;;;;;;;;;6.00;5.33;;;;;;;;5108325;27;51244;-54
2022/04/13 03:47:28;;;;;;;;;6.00;4.67;;;;;;;;5105824;27;51108;-53
2022/04/13 03:49:54;;;;;;;;;4.67;4.67;;;;;;;;5108895;27;51997;-53
2022/04/13 03:52:19;;;;;;;;;5.00;4.00;;;;;;;;5107631;27;51129;-52
2022/04/13 03:54:44;;;;;;;;;5.00;5.00;;;;;;;;5110864;27;50944;-52
2022/04/13 03:57:09;;;;;;;;;6.00;5.33;;;;;;;;5104631;27;51385;-52
2022/04/13 03:59:34;;;;;;;;;5.67;5.00;;;;;;;;5109296;27;51148;-53
2022/04/13 04:02:00;;;;;;;;;6.00;6.00;;;;;;;;5105901;27;51208;-54
2022/04/13 04:04:25;;;;;;;;;6.00;5.00;;;;;;;;5112556;27;51091;-50
2022/04/13 04:06:50;;;;;;;;;6.00;6.00;;;;;;;;5106878;27;52004;-54
2022/04/13 04:09:15;;;;;;;;;5.67;5.00;;;;;;;;5106291;27;52163;-53
2022/04/13 04:11:40;;;;;;;;;7.67;6.00;;;;;;;;5103097;27;51076;-53
2022/04/13 04:14:06;;;;;;;;;4.67;4.33;;;;;;;;5100828;27;50936;-52
2022/04/13 04:16:31;;;;;;;;;6.33;6.00;;;;;;;;5075735;27;51088;-54
2022/04/13 04:18:56;;;;;;;;;6.00;5.00;;;;;;;;5107127;27;51663;-53
2022/04/13 04:21:21;;;;;;;;;6.33;6.00;;;;;;;;5103818;27;50811;-50
2022/04/13 04:23:47;;;;;;;;;6.00;6.00;;;;;;;;5111937;27;50978;-50
2022/04/13 04:26:13;;;;;;;;;6.00;4.33;;;;;;;;5099614;27;50984;-51
2022/04/13 04:28:38;;;;;;;;;5.00;4.00;;;;;;;;5105276;27;51146;-51
2022/04/13 04:31:03;;;;;;;;;8.00;8.00;;;;;;;;5104149;27;51019;-52
2022/04/13 04:33:28;;;;;;;;;7.33;6.00;;;;;;;;5108133;27;51147;-53
2022/04/13 04:35:54;;;;;;;;;7.00;7.00;;;;;;;;5107281;27;51087;-52
2022/04/13 04:38:19;;;;;;;;;8.00;7.00;;;;;;;;5111205;27;51157;-53
2022/04/13 04:40:45;;;;;;;;;6.33;6.33;;;;;;;;5108755;27;51200;-52
2022/04/13 04:43:10;;;;;;;;;8.00;8.00;;;;;;;;5112100;27;51711;-50
2022/04/13 04:45:36;;;;;;;;;8.33;8.33;;;;;;;;5110108;27;51216;-53
2022/04/13 04:48:04;;;;;;;;;5.67;5.00;;;;;;;;5111387;27;51764;-52
2022/04/13 04:50:30;;;;;;;;;7.00;7.00;;;;;;;;5110741;27;51109;-54
2022/04/13 04:52:55;;;;;;;;;8.00;7.67;;;;;;;;5099954;27;51154;-50
2022/04/13 04:55:21;;;;;;;;;7.33;7.33;;;;;;;;5107903;27;51008;-52
2022/04/13 04:57:47;;;;;;;;;5.33;5.33;;;;;;;;5106083;27;51704;-49
2022/04/13 05:00:14;;;;;;;;;7.33;6.00;;;;;;;;5092709;27;51607;-53
2022/04/13 05:02:39;;;;;;;;;7.00;6.00;;;;;;;;5113519;27;51357;-54
2022/04/13 05:05:05;;;;;;;;;6.00;6.00;;;;;;;;5106857;27;51149;-51
2022/04/13 05:07:30;;;;;;;;;7.67;6.67;;;;;;;;5111642;27;51980;-51
2022/04/13 05:09:55;;;;;;;;;9.00;8.00;;;;;;;;5111999;27;51151;-52
2022/04/13 05:12:21;;;;;;;;;5.67;5.00;;;;;;;;5105189;27;51878;-51
2022/04/13 05:14:46;;;;;;;;;4.67;4.67;;;;;;;;5112536;27;51132;-49
2022/04/13 05:17:11;;;;;;;;;6.00;6.00;;;;;;;;5093535;27;51969;-51
2022/04/13 05:19:36;;;;;;;;;6.67;6.00;;;;;;;;5109541;27;51295;-51
2022/04/13 05:22:02;;;;;;;;;7.00;7.00;;;;;;;;5111783;27;51161;-49
2022/04/13 05:24:27;;;;;;;;;7.00;7.00;;;;;;;;5116658;27;50968;-54
2022/04/13 05:26:52;;;;;;;;;6.67;5.67;;;;;;;;5105296;27;51865;-53
2022/04/13 05:29:18;;;;;;;;;6.00;5.67;;;;;;;;5115380;27;51205;-51
2022/04/13 05:31:44;;;;;;;;;11.00;10.00;;;;;;;;5094942;27;51520;-49
2022/04/13 05:34:09;;;;;;;;;9.00;8.33;;;;;;;;5115664;27;51255;-53
2022/04/13 05:36:34;;;;;;;;;8.00;8.00;;;;;;;;5104453;27;51958;-52
2022/04/13 05:38:59;;;;;;;;;8.33;7.33;;;;;;;;5114507;27;50849;-52
2022/04/13 05:41:25;;;;;;;;;7.33;7.33;;;;;;;;5104957;27;50974;-53
2022/04/13 05:43:50;;;;;;;;;10.00;9.00;;;;;;;;5115912;27;51127;-55
2022/04/13 05:46:15;;;;;;;;;9.00;8.00;;;;;;;;5072616;27;52659;-51
2022/04/13 05:48:40;;;;;;;;;10.00;7.00;;;;;;;;5107491;27;51255;-49
2022/04/13 05:51:06;;;;;;;;;9.00;9.00;;;;;;;;5083269;27;51007;-54
2022/04/13 05:53:31;;;;;;;;;9.67;9.33;;;;;;;;5105547;27;51095;-51
2022/04/13 05:55:56;;;;;;;;;11.33;9.67;;;;;;;;5095442;27;51639;-52
2022/04/13 05:58:23;;;;;;;;;10.67;10.67;;;;;;;;5109936;27;51466;-52
2022/04/13 06:00:48;;;;;;;;;9.33;9.00;;;;;;;;5101388;27;51121;-51
2022/04/13 06:03:13;;;;;;;;;7.00;7.00;;;;;;;;5102366;27;51469;-53
2022/04/13 06:05:39;;;;;;;;;11.00;9.25;;;;;;;;5098455;27;51125;-51
2022/04/13 06:08:04;;;;;;;;;8.33;8.00;;;;;;;;5106246;27;51173;-50
2022/04/13 06:10:29;;;;;;;;;12.00;11.50;;;;;;;;5062213;27;51121;-51
2022/04/13 06:12:54;;;;;;;;;9.25;8.75;;;;;;;;5098787;27;51015;-55
2022/04/13 06:15:20;;;;;;;;;12.33;11.00;;;;;;;;5093522;27;52223;-49
2022/04/13 06:17:45;;;;;;;;;12.25;11.25;;;;;;;;5107916;27;51103;-50
2022/04/13 06:20:11;;;;;;;;;13.50;12.75;;;;;;;;5088213;27;51345;-50
2022/04/13 06:22:39;;;;;;;;;15.75;13.75;;;;;;;;5103209;27;51100;-49
2022/04/13 06:25:05;;;;;;;;;12.00;11.50;;;;;;;;5097024;27;52649;-50
2022/04/13 06:27:30;;;;;;;;;13.75;13.25;;;;;;;;5099689;27;51110;-49
2022/04/13 06:29:55;;;;;;;;;10.33;10.33;;;;;;;;5073923;27;51631;-57
2022/04/13 06:32:21;;;;;;;;;10.75;10.75;;;;;;;;5109814;27;51133;-53
2022/04/13 06:34:46;;;;;;;;;13.25;12.50;;;;;;;;5112038;27;55631;-54
2022/04/13 06:37:11;;;;;;;;;14.50;14.50;;;;;;;;5092566;27;51138;-52
2022/04/13 06:39:36;;;;;;;;;12.75;12.00;;;;;;;;5105127;27;50952;-56
2022/04/13 06:42:02;;;;;;;;;14.50;11.75;;;;;;;;5104545;27;51125;-56
2022/04/13 06:44:28;;;;;;;;;14.75;13.75;;;;;;;;5106733;27;51186;-51
2022/04/13 06:46:53;;;;;;;;;19.25;17.00;;;;;;;;5109404;27;51216;-54
2022/04/13 06:49:18;;;;;;;;;12.50;12.25;;;;;;;;5113888;27;51118;-52
2022/04/13 06:51:43;;;;;;;;;12.00;11.50;;;;;;;;5109802;27;51374;-52
2022/04/13 06:54:09;;;;;;;;;18.00;14.50;;;;;;;;5114368;27;51861;-53
2022/04/13 06:56:34;;;;;;;;;13.00;11.25;;;;;;;;5107305;27;51229;-53
2022/04/13 06:58:59;;;;;;;;;11.75;11.75;;;;;;;;5095982;27;51084;-50
2022/04/13 07:01:25;;;;;;;;;12.33;11.33;;;;;;;;5101895;27;52322;-49
2022/04/13 07:03:50;;;;;;;;;15.50;14.50;;;;;;;;5085962;27;53320;-50
2022/04/13 07:06:15;;;;;;;;;15.75;13.75;;;;;;;;5089425;27;51179;-51
2022/04/13 07:08:41;;;;;;;;;15.00;14.00;;;;;;;;5104699;27;51153;-50
2022/04/13 07:11:06;;;;;;;;;18.00;16.25;;;;;;;;5101089;27;51302;-50
2022/04/13 07:13:31;;;;;;;;;16.25;15.75;;;;;;;;5110938;27;52028;-55
2022/04/13 07:15:57;;;;;;;;;14.00;13.75;;;;;;;;5107741;27;50971;-52
2022/04/13 07:18:22;;;;;;;;;18.50;18.00;;;;;;;;5106758;27;51105;-55
2022/04/13 07:20:48;;;;;;;;;14.75;14.25;;;;;;;;5101436;27;50939;-50
2022/04/13 07:23:13;;;;;;;;;19.00;17.50;;;;;;;;5108853;27;52777;-53
2022/04/13 07:25:38;;;;;;;;;12.50;12.50;;;;;;;;5110163;27;50886;-54
2022/04/13 07:28:04;;;;;;;;;11.33;10.67;;;;;;;;5120896;27;50951;-53
2022/04/13 07:30:29;;;;;;;;;9.67;9.00;;;;;;;;5112341;27;51234;-51
2022/04/13 07:32:55;;;;;;;;;8.67;8.67;;;;;;;;5117038;27;52786;-51
2022/04/13 07:35:20;;;;;;;;;9.67;9.67;;;;;;;;5112199;27;51146;-54
2022/04/13 07:37:46;;;;;;;;;11.67;10.67;;;;;;;;5112617;27;50925;-51
2022/04/13 07:40:12;;;;;;;;;12.33;11.33;;;;;;;;5108169;27;51085;-52
2022/04/13 07:42:37;;;;;;;;;10.33;10.33;;;;;;;;5117287;27;51117;-52
2022/04/13 07:45:04;;;;;;;;;14.00;13.00;;;;;;;;5107157;27;51492;-54
2022/04/13 07:47:29;;;;;;;;;11.00;10.00;;;;;;;;5112394;27;51221;-52
2022/04/13 07:49:54;;;;;;;;;12.00;11.25;;;;;;;;5103995;27;51188;-53
2022/04/13 07:52:19;;;;;;;;;10.33;10.00;;;;;;;;5106404;27;52758;-50
2022/04/13 07:54:45;;;;;;;;;8.00;8.00;;;;;;;;5113898;27;51038;-51
2022/04/13 07:57:10;;;;;;;;;9.33;9.33;;;;;;;;5113867;27;50962;-53
2022/04/13 07:59:35;;;;;;;;;14.25;14.00;;;;;;;;5113918;27;51155;-52
2022/04/13 08:02:02;;;;;;;;;10.00;9.67;;;;;;;;5113024;27;51893;-50
2022/04/13 08:04:27;;;;;;;;;12.00;10.00;;;;;;;;5113464;27;51047;-51
2022/04/13 08:06:52;;;;;;;;;9.67;9.00;;;;;;;;5114012;27;51676;-51
2022/04/13 08:09:18;;;;;;;;;11.33;10.33;;;;;;;;5111898;27;51111;-49
2022/04/13 08:11:45;;;;;;;;;9.67;9.67;;;;;;;;5116516;27;51280;-51
2022/04/13 08:14:10;;;;;;;;;12.67;12.00;;;;;;;;5116463;27;51184;-53
2022/04/13 08:16:36;;;;;;;;;14.00;13.25;;;;;;;;5117025;27;51254;-50
2022/04/13 08:19:01;;;;;;;;;16.00;12.67;;;;;;;;5117231;27;50929;-51
2022/04/13 08:21:26;;;;;;;;;13.33;13.00;;;;;;;;5116408;27;51895;-55
2022/04/13 08:23:51;;;;;;;;;15.00;13.50;;;;;;;;5116960;27;50889;-50
2022/04/13 08:26:17;;;;;;;;;13.50;12.75;;;;;;;;5115299;27;50868;-51
2022/04/13 08:28:42;;;;;;;;;17.00;15.33;;;;;;;;5117117;27;51141;-53
2022/04/13 08:31:09;;;;;;;;;13.00;13.00;;;;;;;;5116709;27;51290;-53
2022/04/13 08:33:34;;;;;;;;;12.50;12.25;;;;;;;;5116314;27;51073;-51
2022/04/13 08:36:00;;;;;;;;;16.00;16.00;;;;;;;;5113114;27;51178;-53
2022/04/13 08:38:25;;;;;;;;;12.25;11.75;;;;;;;;5109808;27;51348;-51
2022/04/13 08:40:58;;;;;;;;;13.00;13.00;;;;;;;;5116757;27;52307;-53
2022/04/13 08:43:26;;;;;;;;;16.00;14.67;;;;;;;;5116530;27;51169;-52
2022/04/13 08:45:55;;;;;;;;;12.00;12.00;;;;;;;;5116753;27;51050;-53
2022/04/13 08:48:24;;;;;;;;;12.00;12.00;;;;;;;;5116162;27;51039;-51
2022/04/13 08:50:56;;;;;;;;;12.33;12.00;;;;;;;;5116278;27;51825;-56
2022/04/13 08:53:23;;;;;;;;;15.00;14.00;;;;;;;;5116453;27;50996;-54
2022/04/13 08:55:53;;;;;;;;;12.25;12.25;;;;;;;;5116298;27;51073;-52
2022/04/13 08:58:21;;;;;;;;;13.75;12.75;;;;;;;;5116507;27;51223;-53
2022/04/13 09:00:49;;;;;;;;;15.25;15.25;;;;;;;;5116128;27;50941;-52
2022/04/13 09:03:14;;;;;;;;;14.25;14.25;;;;;;;;5115840;27;51011;-54
2022/04/13 09:05:40;;;;;;;;;10.75;10.00;;;;;;;;5116266;27;51359;-54
2022/04/13 09:08:17;;;;;;;;;9.33;9.00;;;;;;;;5116019;27;51222;-52
2022/04/13 09:10:42;;;;;;;;;14.00;13.33;;;;;;;;5115889;27;51860;-52
2022/04/13 09:13:10;;;;;;;;;14.75;13.50;;;;;;;;5116073;27;50956;-52
2022/04/13 09:15:40;;;;;;;;;16.50;16.00;;;;;;;;5115710;27;51188;-50
2022/04/13 09:18:08;;;;;;;;;14.00;13.00;;;;;;;;5115937;27;51206;-53
2022/04/13 09:20:34;;;;;;;;;16.00;14.25;;;;;;;;5115057;27;51309;-54
2022/04/13 09:22:59;;;;;;;;;17.00;15.75;;;;;;;;5116009;27;50923;-51
2022/04/13 09:25:26;;;;;;;;;14.25;13.50;;;;;;;;5115802;27;50864;-54
2022/04/13 09:27:52;;;;;;;;;12.67;11.67;;;;;;;;5115978;27;51364;-53
2022/04/13 09:30:17;;;;;;;;;12.33;11.33;;;;;;;;5115308;27;51866;-51
2022/04/13 09:32:44;;;;;;;;;12.33;12.00;;;;;;;;5115658;27;51289;-53
2022/04/13 09:35:09;;;;;;;;;11.50;11.00;;;;;;;;5096595;27;51054;-54
2022/04/13 09:37:35;;;;;;;;;13.25;13.25;;;;;;;;5115585;27;51189;-52
2022/04/13 09:40:00;;;;;;;;;16.00;16.00;;;;;;;;5115020;27;51952;-53
2022/04/13 09:42:27;;;;;;;;;19.50;18.75;;;;;;;;5096881;27;51103;-53
2022/04/13 09:45:00;;;;;;;;;13.00;12.75;;;;;;;;5115034;27;51256;-54
2022/04/13 09:47:30;;;;;;;;;14.25;14.25;;;;;;;;5115655;27;50987;-53
2022/04/13 09:49:56;;;;;;;;;21.75;20.50;;;;;;;;5114575;27;51034;-54
2022/04/13 09:52:40;;;;;;;;;19.75;19.25;;;;;;;;5114974;27;50943;-53
2022/04/13 09:55:06;;;;;;;;;19.50;18.50;;;;;;;;5096627;27;51437;-55
2022/04/13 09:57:31;;;;;;;;;21.75;20.25;;;;;;;;5115501;27;51131;-55
2022/04/13 09:59:58;;;;;;;;;18.50;18.00;;;;;;;;5115023;27;51808;-53
2022/04/13 10:02:34;;;;;;;;;18.75;17.00;;;;;;;;5114926;27;51160;-55
2022/04/13 10:04:59;;;;;;;;;15.00;14.25;;;;;;;;5114918;27;51004;-54
2022/04/13 10:07:25;;;;;;;;;20.00;17.75;;;;;;;;5115409;27;50987;-55
2022/04/13 10:09:50;;;;;;;;;15.00;14.00;;;;;;;;5114871;27;51100;-52
2022/04/13 10:12:15;;;;;;;;;3.00;1.00;;;;;;;;5114936;27;51149;-51
2022/04/13 10:14:41;;;;;;;;;16.00;15.00;;;;;;;;5115094;27;51296;-55
2022/04/13 10:17:07;;;;;;;;;22.00;20.25;;;;;;;;5114870;27;51153;-52
2022/04/13 10:19:32;;;;;;;;;24.75;22.75;;;;;;;;5114720;27;51094;-53
2022/04/13 10:21:57;;;;;;;;;17.50;17.50;;;;;;;;5113835;27;51013;-54
2022/04/13 10:24:27;;;;;;;;;19.25;19.00;;;;;;;;5115378;27;50907;-52
2022/04/13 10:27:00;;;;;;;;;21.00;20.50;;;;;;;;5112758;27;51939;-55
2022/04/13 10:29:26;;;;;;;;;27.50;27.50;;;;;;;;5095682;27;52216;-54
2022/04/13 10:32:18;;;;;;;;;20.75;20.25;;;;;;;;5095209;27;50809;-55
2022/04/13 10:34:44;;;;;;;;;21.50;21.00;;;;;;;;5101539;27;51021;-50
2022/04/13 10:37:13;;;;;;;;;18.00;17.50;;;;;;;;5114734;27;51090;-53
2022/04/13 10:39:39;;;;;;;;;20.25;20.25;;;;;;;;5114389;27;52022;-55
2022/04/13 10:42:06;;;;;;;;;17.25;17.25;;;;;;;;5114313;27;50948;-52
2022/04/13 10:44:41;;;;;;;;;20.50;19.00;;;;;;;;5114745;27;51024;-51
2022/04/13 10:47:07;;;;;;;;;16.75;16.75;;;;;;;;5114546;27;51199;-50
2022/04/13 10:49:51;;;;;;;;;10.67;10.00;;;;;;;;5113527;27;52043;-49
2022/04/13 10:52:21;;;;;;;;;11.00;11.00;;;;;;;;5114300;27;50895;-49
2022/04/13 10:54:49;;;;;;;;;14.75;14.00;;;;;;;;5114376;27;51045;-53
2022/04/13 10:57:16;;;;;;;;;15.75;14.50;;;;;;;;5114591;27;51124;-54
2022/04/13 10:59:50;;;;;;;;;15.25;14.00;;;;;;;;5114240;27;51775;-51
2022/04/13 11:02:24;;;;;;;;;16.25;15.25;;;;;;;;5114114;27;50973;-52
2022/04/13 11:04:50;;;;;;;;;22.25;18.00;;;;;;;;5113721;27;51159;-54
2022/04/13 11:07:17;;;;;;;;;15.00;14.00;;;;;;;;5114673;27;50968;-52
2022/04/13 11:09:43;;;;;;;;;13.00;12.00;;;;;;;;5113563;27;51040;-55
2022/04/13 11:12:09;;;;;;;;;11.00;11.00;;;;;;;;5113827;27;51031;-55
2022/04/13 11:14:51;;;;;;;;;2.00;1.33;;;;;;;;5114092;27;50864;-50
2022/04/13 11:17:16;;;;;;;;;19.50;17.75;;;;;;;;5113659;27;51058;-52
2022/04/13 11:19:42;;;;;;;;;16.50;14.25;;;;;;;;5113396;27;51050;-55
2022/04/13 11:22:09;;;;;;;;;14.00;13.67;;;;;;;;5113667;27;51155;-50
2022/04/13 11:24:39;;;;;;;;;15.50;15.25;;;;;;;;5113755;27;50882;-52
2022/04/13 11:27:05;;;;;;;;;14.00;14.00;;;;;;;;5113872;27;51066;-50
2022/04/13 11:29:35;;;;;;;;;12.33;12.00;;;;;;;;5095119;27;50968;-53
2022/04/13 11:32:00;;;;;;;;;15.00;14.33;;;;;;;;5113378;27;51114;-51
2022/04/13 11:34:29;;;;;;;;;16.50;16.50;;;;;;;;5113658;27;51173;-53
2022/04/13 11:37:04;;;;;;;;;23.50;22.50;;;;;;;;5113923;27;51056;-50
2022/04/13 11:39:48;;;;;;;;;13.75;13.75;;;;;;;;5113530;27;51207;-51
2022/04/13 11:42:34;;;;;;;;;13.67;13.00;;;;;;;;5113802;27;51068;-54
2022/04/13 11:45:12;;;;;;;;;20.25;19.50;;;;;;;;5113084;27;50939;-52
2022/04/13 11:47:50;;;;;;;;;15.00;14.25;;;;;;;;5113246;27;50960;-51
2022/04/13 11:50:17;;;;;;;;;11.33;10.33;;;;;;;;5100851;27;52373;-53
2022/04/13 11:52:48;;;;;;;;;11.67;11.67;;;;;;;;5113387;27;50839;-53
2022/04/13 11:55:20;;;;;;;;;11.33;10.67;;;;;;;;5113640;27;50955;-51
2022/04/13 11:58:04;;;;;;;;;21.25;19.00;;;;;;;;5113599;27;51053;-52
2022/04/13 12:00:50;;;;;;;;;12.67;12.00;;;;;;;;5113039;27;51900;-53
2022/04/13 12:03:20;;;;;;;;;12.33;12.00;;;;;;;;5101451;27;51039;-51
2022/04/13 12:05:47;;;;;;;;;14.33;13.33;;;;;;;;5113643;27;51105;-53
2022/04/13 12:08:13;;;;;;;;;42.25;34.50;;;;;;;;5113583;27;50860;-54
2022/04/13 12:10:44;;;;;;;;;18.25;17.50;;;;;;;;5112894;27;53300;-53
2022/04/13 12:13:09;;;;;;;;;14.50;14.50;;;;;;;;5095016;27;50937;-55
2022/04/13 12:15:45;;;;;;;;;15.00;13.33;;;;;;;;5094673;27;51236;-53
2022/04/13 12:18:11;;;;;;;;;11.33;11.33;;;;;;;;5113563;27;50825;-52
2022/04/13 12:20:36;;;;;;;;;22.00;20.50;;;;;;;;5113033;27;51075;-51
2022/04/13 12:23:17;;;;;;;;;19.25;18.00;;;;;;;;5113069;27;50921;-54
2022/04/13 12:25:43;;;;;;;;;10.67;10.67;;;;;;;;5113416;27;51059;-53
2022/04/13 12:28:08;;;;;;;;;17.00;16.00;;;;;;;;5112317;27;50891;-53
2022/04/13 12:30:34;;;;;;;;;12.33;12.33;;;;;;;;5112574;27;52043;-50
2022/04/13 12:33:10;;;;;;;;;8.33;8.33;;;;;;;;5112613;27;50827;-51
2022/04/13 12:35:46;;;;;;;;;12.00;12.00;;;;;;;;5075167;27;51081;-53
2022/04/13 12:38:20;;;;;;;;;11.33;11.00;;;;;;;;5113163;27;50814;-50
2022/04/13 12:40:45;;;;;;;;;12.00;12.00;;;;;;;;5112320;27;51795;-48
2022/04/13 12:43:11;;;;;;;;;12.00;9.00;;;;;;;;5094532;27;50881;-51
2022/04/13 12:45:36;;;;;;;;;11.00;11.00;;;;;;;;5112489;27;50924;-49
2022/04/13 12:48:08;;;;;;;;;12.00;11.67;;;;;;;;5112432;27;50835;-51
2022/04/13 12:50:33;;;;;;;;;12.67;12.00;;;;;;;;5112698;27;51037;-53
2022/04/13 12:52:59;;;;;;;;;35.50;32.50;;;;;;;;5112826;27;51050;-54
2022/04/13 12:55:24;;;;;;;;;15.50;15.50;;;;;;;;5112996;27;50821;-53
2022/04/13 12:57:49;;;;;;;;;12.00;12.00;;;;;;;;5116779;27;50888;-53
2022/04/13 13:00:33;;;;;;;;;11.00;10.00;;;;;;;;5115868;27;52127;-54
2022/04/13 13:02:58;;;;;;;;;13.00;12.00;;;;;;;;5115967;27;50960;-51
2022/04/13 13:05:24;;;;;;;;;9.67;9.33;;;;;;;;5116154;27;50986;-54
2022/04/13 13:07:49;;;;;;;;;11.67;11.67;;;;;;;;5116617;27;51205;-53
2022/04/13 13:10:14;;;;;;;;;11.67;11.67;;;;;;;;5115619;27;50847;-53
2022/04/13 13:12:40;;;;;;;;;8.67;8.00;;;;;;;;5116032;27;50991;-52
2022/04/13 13:15:05;;;;;;;;;10.00;10.00;;;;;;;;5116245;27;51124;-50
2022/04/13 13:17:31;;;;;;;;;11.00;10.00;;;;;;;;5116060;27;50894;-51
2022/04/13 13:20:06;;;;;;;;;10.67;10.67;;;;;;;;5096928;27;50960;-49
2022/04/13 13:22:38;;;;;;;;;10.00;8.00;;;;;;;;5115938;27;50869;-53
2022/04/13 13:25:04;;;;;;;;;6.00;6.00;;;;;;;;5115689;27;51058;-54
2022/04/13 13:27:31;;;;;;;;;9.33;9.33;;;;;;;;5116142;27;51224;-53
2022/04/13 13:30:00;;;;;;;;;8.00;7.33;;;;;;;;5115248;27;51129;-54
2022/04/13 13:32:27;;;;;;;;;7.33;7.33;;;;;;;;5115492;27;51084;-53
2022/04/13 13:34:54;;;;;;;;;7.00;6.33;;;;;;;;5115162;27;51099;-53
2022/04/13 13:37:32;;;;;;;;;6.67;6.33;;;;;;;;5115709;27;51111;-54
2022/04/13 13:40:01;;;;;;;;;9.00;8.33;;;;;;;;5115142;27;50957;-53
2022/04/13 13:42:27;;;;;;;;;7.33;6.67;;;;;;;;5115493;27;50989;-52
2022/04/13 13:44:52;;;;;;;;;8.00;7.67;;;;;;;;5115208;27;51019;-55
2022/04/13 13:47:17;;;;;;;;;6.00;5.00;;;;;;;;5115469;27;51282;-52
2022/04/13 13:49:42;;;;;;;;;7.33;7.33;;;;;;;;5095523;27;51178;-52
2022/04/13 13:52:08;;;;;;;;;9.00;9.00;;;;;;;;5115697;27;51058;-54
2022/04/13 13:54:35;;;;;;;;;7.00;6.67;;;;;;;;5114933;27;51050;-54
2022/04/13 13:57:01;;;;;;;;;10.67;10.33;;;;;;;;5115872;27;50843;-54
2022/04/13 13:59:26;;;;;;;;;6.67;6.67;;;;;;;;5114773;27;50973;-52
2022/04/13 14:01:51;;;;;;;;;7.00;7.00;;;;;;;;5114915;27;50877;-49
2022/04/13 14:04:16;;;;;;;;;6.00;6.00;;;;;;;;5114848;27;51245;-53
2022/04/13 14:06:42;;;;;;;;;5.00;5.00;;;;;;;;5097403;27;51366;-53
2022/04/13 14:09:08;;;;;;;;;10.67;10.67;;;;;;;;5106047;27;50900;-54
2022/04/13 14:11:34;;;;;;;;;29.00;24.67;;;;;;;;5105665;27;51175;-52
2022/04/13 14:13:59;;;;;;;;;9.00;9.00;;;;;;;;5115467;27;51160;-54
2022/04/13 14:16:24;;;;;;;;;6.33;6.33;;;;;;;;5096847;27;51309;-56
2022/04/13 14:18:50;;;;;;;;;7.00;6.00;;;;;;;;5114407;27;51013;-55
2022/04/13 14:21:15;;;;;;;;;6.00;5.67;;;;;;;;5115460;27;50960;-51
2022/04/13 14:23:40;;;;;;;;;6.67;6.67;;;;;;;;5115323;27;51292;-52
2022/04/13 14:26:05;;;;;;;;;2.00;2.00;;;;;;;;5113077;27;50953;-54
2022/04/13 14:28:31;;;;;;;;;6.33;6.00;;;;;;;;5111712;27;51052;-52